sensor_id;sensor_type;location;lat;lon;timestamp;temperature;humidity
29093;DHT22;16167;48.768;14.984;2024-01-07T00:01:56;3.30;99.90
29093;DHT22;16167;48.768;14.984;2024-01-07T00:04:24;3.30;99.90
29093;DHT22;16167;48.768;14.984;2024-01-07T00:06:53;3.30;99.10
29093;DHT22;16167;48.768;14.984;2024-01-07T00:09:21;3.20;97.90
29093;DHT22;16167;48.768;14.984;2024-01-07T00:11:53;3.20;96.70
29093;DHT22;16167;48.768;14.984;2024-01-07T00:14:21;3.20;97.60
29093;DHT22;16167;48.768;14.984;2024-01-07T00:16:51;3.10;97.50
29093;DHT22;16167;48.768;14.984;2024-01-07T00:19:23;3.10;97.30
29093;DHT22;16167;48.768;14.984;2024-01-07T00:21:52;3.10;97.10
29093;DHT22;16167;48.768;14.984;2024-01-07T00:24:20;3.10;96.90
29093;DHT22;16167;48.768;14.984;2024-01-07T00:29:34;3.00;96.20
29093;DHT22;16167;48.768;14.984;2024-01-07T00:32:06;3.00;96.80
29093;DHT22;16167;48.768;14.984;2024-01-07T00:34:34;3.00;97.60
29093;DHT22;16167;48.768;14.984;2024-01-07T00:37:06;2.90;97.60
29093;DHT22;16167;48.768;14.984;2024-01-07T00:39:34;2.90;97.90
29093;DHT22;16167;48.768;14.984;2024-01-07T00:42:04;2.90;97.30
29093;DHT22;16167;48.768;14.984;2024-01-07T00:44:34;2.90;96.10
29093;DHT22;16167;48.768;14.984;2024-01-07T00:47:03;2.80;96.90
29093;DHT22;16167;48.768;14.984;2024-01-07T00:49:39;2.80;97.10
29093;DHT22;16167;48.768;14.984;2024-01-07T00:52:08;2.70;97.00
29093;DHT22;16167;48.768;14.984;2024-01-07T00:54:46;2.70;96.70
29093;DHT22;16167;48.768;14.984;2024-01-07T00:57:14;2.60;96.10
29093;DHT22;16167;48.768;14.984;2024-01-07T00:59:47;2.50;95.90
29093;DHT22;16167;48.768;14.984;2024-01-07T01:02:27;2.50;97.00
29093;DHT22;16167;48.768;14.984;2024-01-07T01:04:55;2.40;96.10
29093;DHT22;16167;48.768;14.984;2024-01-07T01:07:24;2.40;96.70
29093;DHT22;16167;48.768;14.984;2024-01-07T01:09:52;2.30;96.70
29093;DHT22;16167;48.768;14.984;2024-01-07T01:12:21;2.30;95.80
29093;DHT22;16167;48.768;14.984;2024-01-07T01:14:52;2.20;95.40
29093;DHT22;16167;48.768;14.984;2024-01-07T01:17:20;2.20;96.30
29093;DHT22;16167;48.768;14.984;2024-01-07T01:19:49;2.10;96.50
29093;DHT22;16167;48.768;14.984;2024-01-07T01:22:20;2.00;97.20
29093;DHT22;16167;48.768;14.984;2024-01-07T01:24:48;2.00;97.50
29093;DHT22;16167;48.768;14.984;2024-01-07T01:27:18;1.90;97.50
29093;DHT22;16167;48.768;14.984;2024-01-07T01:29:46;1.90;97.90
29093;DHT22;16167;48.768;14.984;2024-01-07T01:32:16;1.80;97.30
29093;DHT22;16167;48.768;14.984;2024-01-07T01:34:45;1.80;97.90
29093;DHT22;16167;48.768;14.984;2024-01-07T01:37:13;1.80;98.10
29093;DHT22;16167;48.768;14.984;2024-01-07T01:39:45;1.70;98.60
29093;DHT22;16167;48.768;14.984;2024-01-07T01:42:14;1.70;98.80
29093;DHT22;16167;48.768;14.984;2024-01-07T01:44:43;1.70;99.00
29093;DHT22;16167;48.768;14.984;2024-01-07T01:47:11;1.60;98.80
29093;DHT22;16167;48.768;14.984;2024-01-07T01:49:41;1.60;98.50
29093;DHT22;16167;48.768;14.984;2024-01-07T01:52:23;1.60;99.30
29093;DHT22;16167;48.768;14.984;2024-01-07T01:54:52;1.60;98.50
29093;DHT22;16167;48.768;14.984;2024-01-07T01:57:24;1.50;98.60
29093;DHT22;16167;48.768;14.984;2024-01-07T01:59:57;1.50;98.40
29093;DHT22;16167;48.768;14.984;2024-01-07T02:02:30;1.40;98.50
29093;DHT22;16167;48.768;14.984;2024-01-07T02:05:29;1.40;98.10
29093;DHT22;16167;48.768;14.984;2024-01-07T02:07:58;1.40;98.70
29093;DHT22;16167;48.768;14.984;2024-01-07T02:10:28;1.40;98.30
29093;DHT22;16167;48.768;14.984;2024-01-07T02:13:02;1.30;98.10
29093;DHT22;16167;48.768;14.984;2024-01-07T02:15:47;1.30;98.10
29093;DHT22;16167;48.768;14.984;2024-01-07T02:18:16;1.30;98.20
29093;DHT22;16167;48.768;14.984;2024-01-07T02:20:46;1.30;99.40
29093;DHT22;16167;48.768;14.984;2024-01-07T02:23:15;1.20;99.70
29093;DHT22;16167;48.768;14.984;2024-01-07T02:25:45;1.20;99.20
29093;DHT22;16167;48.768;14.984;2024-01-07T02:28:13;1.20;98.80
29093;DHT22;16167;48.768;14.984;2024-01-07T02:30:41;1.20;98.40
29093;DHT22;16167;48.768;14.984;2024-01-07T02:33:10;1.20;98.80
29093;DHT22;16167;48.768;14.984;2024-01-07T02:35:40;1.20;98.60
29093;DHT22;16167;48.768;14.984;2024-01-07T02:38:09;1.20;98.40
29093;DHT22;16167;48.768;14.984;2024-01-07T02:40:37;1.10;98.50
29093;DHT22;16167;48.768;14.984;2024-01-07T02:43:07;1.20;98.40
29093;DHT22;16167;48.768;14.984;2024-01-07T02:45:36;1.10;98.60
29093;DHT22;16167;48.768;14.984;2024-01-07T02:48:05;1.10;98.60
29093;DHT22;16167;48.768;14.984;2024-01-07T02:50:33;1.10;98.50
29093;DHT22;16167;48.768;14.984;2024-01-07T02:53:03;1.10;98.60
29093;DHT22;16167;48.768;14.984;2024-01-07T02:55:31;1.10;98.50
29093;DHT22;16167;48.768;14.984;2024-01-07T02:57:59;1.10;98.60
29093;DHT22;16167;48.768;14.984;2024-01-07T03:00:46;1.10;99.20
29093;DHT22;16167;48.768;14.984;2024-01-07T03:03:19;1.10;99.60
29093;DHT22;16167;48.768;14.984;2024-01-07T03:05:47;1.00;99.90
29093;DHT22;16167;48.768;14.984;2024-01-07T03:08:16;1.00;99.90
29093;DHT22;16167;48.768;14.984;2024-01-07T03:10:44;1.00;99.90
29093;DHT22;16167;48.768;14.984;2024-01-07T03:13:12;1.00;99.90
29093;DHT22;16167;48.768;14.984;2024-01-07T03:15:42;1.00;99.90
29093;DHT22;16167;48.768;14.984;2024-01-07T03:18:20;0.90;99.90
29093;DHT22;16167;48.768;14.984;2024-01-07T03:21:03;1.00;99.90
29093;DHT22;16167;48.768;14.984;2024-01-07T03:23:32;0.90;99.90
29093;DHT22;16167;48.768;14.984;2024-01-07T03:26:00;0.90;99.90
29093;DHT22;16167;48.768;14.984;2024-01-07T03:28:28;0.90;99.90
29093;DHT22;16167;48.768;14.984;2024-01-07T03:31:05;0.90;99.80
29093;DHT22;16167;48.768;14.984;2024-01-07T03:33:38;0.90;99.90
29093;DHT22;16167;48.768;14.984;2024-01-07T03:36:09;0.90;99.90
29093;DHT22;16167;48.768;14.984;2024-01-07T03:38:38;0.90;99.90
29093;DHT22;16167;48.768;14.984;2024-01-07T03:41:06;0.90;99.70
29093;DHT22;16167;48.768;14.984;2024-01-07T03:43:35;0.90;99.80
29093;DHT22;16167;48.768;14.984;2024-01-07T03:46:05;0.80;99.20
29093;DHT22;16167;48.768;14.984;2024-01-07T03:48:40;0.80;98.20
29093;DHT22;16167;48.768;14.984;2024-01-07T03:51:12;0.80;98.40
29093;DHT22;16167;48.768;14.984;2024-01-07T03:53:40;0.80;98.90
29093;DHT22;16167;48.768;14.984;2024-01-07T03:56:08;0.80;98.70
29093;DHT22;16167;48.768;14.984;2024-01-07T03:58:37;0.80;98.90
29093;DHT22;16167;48.768;14.984;2024-01-07T04:01:07;0.80;99.10
29093;DHT22;16167;48.768;14.984;2024-01-07T04:03:36;0.80;99.10
29093;DHT22;16167;48.768;14.984;2024-01-07T04:06:09;0.70;99.30
29093;DHT22;16167;48.768;14.984;2024-01-07T04:08:38;0.70;99.30
29093;DHT22;16167;48.768;14.984;2024-01-07T04:11:06;0.70;98.80
29093;DHT22;16167;48.768;14.984;2024-01-07T04:13:35;0.70;98.00
29093;DHT22;16167;48.768;14.984;2024-01-07T04:16:16;0.70;98.10
29093;DHT22;16167;48.768;14.984;2024-01-07T04:18:45;0.70;97.30
29093;DHT22;16167;48.768;14.984;2024-01-07T04:21:20;0.70;97.60
29093;DHT22;16167;48.768;14.984;2024-01-07T04:23:49;0.70;97.40
29093;DHT22;16167;48.768;14.984;2024-01-07T04:26:18;0.70;98.00
29093;DHT22;16167;48.768;14.984;2024-01-07T04:28:47;0.60;97.80
29093;DHT22;16167;48.768;14.984;2024-01-07T04:31:25;0.60;97.40
29093;DHT22;16167;48.768;14.984;2024-01-07T04:33:54;0.60;96.00
29093;DHT22;16167;48.768;14.984;2024-01-07T04:36:23;0.60;95.80
29093;DHT22;16167;48.768;14.984;2024-01-07T04:38:51;0.50;95.60
29093;DHT22;16167;48.768;14.984;2024-01-07T04:41:20;0.60;96.60
29093;DHT22;16167;48.768;14.984;2024-01-07T04:43:48;0.50;95.70
29093;DHT22;16167;48.768;14.984;2024-01-07T04:46:18;0.50;95.40
29093;DHT22;16167;48.768;14.984;2024-01-07T04:48:46;0.50;95.20
29093;DHT22;16167;48.768;14.984;2024-01-07T04:51:14;0.50;94.30
29093;DHT22;16167;48.768;14.984;2024-01-07T04:53:43;0.40;94.10
29093;DHT22;16167;48.768;14.984;2024-01-07T04:56:11;0.40;94.10
29093;DHT22;16167;48.768;14.984;2024-01-07T04:58:40;0.30;94.00
29093;DHT22;16167;48.768;14.984;2024-01-07T05:01:08;0.40;93.80
29093;DHT22;16167;48.768;14.984;2024-01-07T05:03:39;0.30;93.20
29093;DHT22;16167;48.768;14.984;2024-01-07T05:06:14;0.30;94.00
29093;DHT22;16167;48.768;14.984;2024-01-07T05:11:52;0.30;92.30
29093;DHT22;16167;48.768;14.984;2024-01-07T05:14:20;0.20;92.40
29093;DHT22;16167;48.768;14.984;2024-01-07T05:16:50;0.20;92.90
29093;DHT22;16167;48.768;14.984;2024-01-07T05:19:19;0.10;93.50
29093;DHT22;16167;48.768;14.984;2024-01-07T05:21:48;0.10;93.20
29093;DHT22;16167;48.768;14.984;2024-01-07T05:24:16;0.10;92.70
29093;DHT22;16167;48.768;14.984;2024-01-07T05:26:55;0.10;93.10
29093;DHT22;16167;48.768;14.984;2024-01-07T05:29:25;0.00;92.50
29093;DHT22;16167;48.768;14.984;2024-01-07T05:31:53;0.00;92.40
29093;DHT22;16167;48.768;14.984;2024-01-07T05:34:22;0.00;91.50
29093;DHT22;16167;48.768;14.984;2024-01-07T05:36:53;0.00;89.50
29093;DHT22;16167;48.768;14.984;2024-01-07T05:39:23;0.00;90.30
29093;DHT22;16167;48.768;14.984;2024-01-07T05:41:52;-0.10;92.60
29093;DHT22;16167;48.768;14.984;2024-01-07T05:44:20;-0.10;93.20
29093;DHT22;16167;48.768;14.984;2024-01-07T05:46:50;-0.10;93.70
29093;DHT22;16167;48.768;14.984;2024-01-07T05:49:25;-0.10;94.50
29093;DHT22;16167;48.768;14.984;2024-01-07T05:51:54;-0.10;93.40
29093;DHT22;16167;48.768;14.984;2024-01-07T05:54:24;-0.10;93.90
29093;DHT22;16167;48.768;14.984;2024-01-07T05:56:57;-0.20;94.60
29093;DHT22;16167;48.768;14.984;2024-01-07T05:59:26;-0.10;94.30
29093;DHT22;16167;48.768;14.984;2024-01-07T06:01:59;-0.10;95.60
29093;DHT22;16167;48.768;14.984;2024-01-07T06:04:44;-0.10;95.90
29093;DHT22;16167;48.768;14.984;2024-01-07T06:07:13;-0.20;95.30
29093;DHT22;16167;48.768;14.984;2024-01-07T06:09:42;-0.20;92.80
29093;DHT22;16167;48.768;14.984;2024-01-07T06:12:11;-0.20;91.40
29093;DHT22;16167;48.768;14.984;2024-01-07T06:14:39;-0.30;90.70
29093;DHT22;16167;48.768;14.984;2024-01-07T06:17:08;-0.20;91.60
29093;DHT22;16167;48.768;14.984;2024-01-07T06:19:36;-0.30;91.10
29093;DHT22;16167;48.768;14.984;2024-01-07T06:22:06;-0.30;87.20
29093;DHT22;16167;48.768;14.984;2024-01-07T06:24:35;-0.30;88.20
29093;DHT22;16167;48.768;14.984;2024-01-07T06:27:03;-0.40;89.60
29093;DHT22;16167;48.768;14.984;2024-01-07T06:29:32;-0.40;90.20
29093;DHT22;16167;48.768;14.984;2024-01-07T06:32:01;-0.40;89.80
29093;DHT22;16167;48.768;14.984;2024-01-07T06:34:30;-0.40;91.60
29093;DHT22;16167;48.768;14.984;2024-01-07T06:37:00;-0.50;92.70
29093;DHT22;16167;48.768;14.984;2024-01-07T06:39:30;-0.50;92.20
29093;DHT22;16167;48.768;14.984;2024-01-07T06:42:23;-0.50;92.30
29093;DHT22;16167;48.768;14.984;2024-01-07T06:44:51;-0.50;91.80
29093;DHT22;16167;48.768;14.984;2024-01-07T06:47:25;-0.60;91.20
29093;DHT22;16167;48.768;14.984;2024-01-07T06:49:53;-0.60;91.70
29093;DHT22;16167;48.768;14.984;2024-01-07T06:52:22;-0.60;91.00
29093;DHT22;16167;48.768;14.984;2024-01-07T06:54:52;-0.60;90.50
29093;DHT22;16167;48.768;14.984;2024-01-07T06:57:20;-0.60;88.40
29093;DHT22;16167;48.768;14.984;2024-01-07T06:59:49;-0.70;88.80
29093;DHT22;16167;48.768;14.984;2024-01-07T07:02:17;-0.70;90.20
29093;DHT22;16167;48.768;14.984;2024-01-07T07:04:46;-0.70;89.90
29093;DHT22;16167;48.768;14.984;2024-01-07T07:07:15;-0.70;87.50
29093;DHT22;16167;48.768;14.984;2024-01-07T07:09:43;-0.70;86.90
29093;DHT22;16167;48.768;14.984;2024-01-07T07:12:13;-0.70;89.50
29093;DHT22;16167;48.768;14.984;2024-01-07T07:14:42;-0.80;89.60
29093;DHT22;16167;48.768;14.984;2024-01-07T07:17:10;-0.80;88.80
29093;DHT22;16167;48.768;14.984;2024-01-07T07:19:38;-0.80;88.30
29093;DHT22;16167;48.768;14.984;2024-01-07T07:22:11;-0.80;87.10
29093;DHT22;16167;48.768;14.984;2024-01-07T07:24:40;-0.80;86.40
29093;DHT22;16167;48.768;14.984;2024-01-07T07:27:09;-0.80;84.60
29093;DHT22;16167;48.768;14.984;2024-01-07T07:29:45;-0.80;84.70
29093;DHT22;16167;48.768;14.984;2024-01-07T07:32:13;-0.80;86.50
29093;DHT22;16167;48.768;14.984;2024-01-07T07:34:41;-0.80;90.10
29093;DHT22;16167;48.768;14.984;2024-01-07T07:37:10;-0.80;89.10
29093;DHT22;16167;48.768;14.984;2024-01-07T07:39:38;-0.80;85.60
29093;DHT22;16167;48.768;14.984;2024-01-07T07:42:07;-0.80;84.40
29093;DHT22;16167;48.768;14.984;2024-01-07T07:44:37;-0.80;85.10
29093;DHT22;16167;48.768;14.984;2024-01-07T07:47:07;-0.80;87.10
29093;DHT22;16167;48.768;14.984;2024-01-07T07:49:38;-0.80;83.40
29093;DHT22;16167;48.768;14.984;2024-01-07T07:52:08;-0.80;84.70
29093;DHT22;16167;48.768;14.984;2024-01-07T07:54:37;-0.80;84.90
29093;DHT22;16167;48.768;14.984;2024-01-07T07:57:05;-0.80;80.60
29093;DHT22;16167;48.768;14.984;2024-01-07T07:59:34;-0.80;75.00
29093;DHT22;16167;48.768;14.984;2024-01-07T08:02:03;-0.80;77.20
29093;DHT22;16167;48.768;14.984;2024-01-07T08:04:33;-0.80;81.20
29093;DHT22;16167;48.768;14.984;2024-01-07T08:07:01;-0.80;74.60
29093;DHT22;16167;48.768;14.984;2024-01-07T08:09:33;-0.70;75.70
29093;DHT22;16167;48.768;14.984;2024-01-07T08:12:26;-0.70;74.50
29093;DHT22;16167;48.768;14.984;2024-01-07T08:14:54;-0.70;75.30
29093;DHT22;16167;48.768;14.984;2024-01-07T08:17:22;-0.70;74.80
29093;DHT22;16167;48.768;14.984;2024-01-07T08:19:58;-0.70;72.00
29093;DHT22;16167;48.768;14.984;2024-01-07T08:22:28;-0.70;69.00
29093;DHT22;16167;48.768;14.984;2024-01-07T08:24:57;-0.70;70.90
29093;DHT22;16167;48.768;14.984;2024-01-07T08:27:25;-0.70;71.40
29093;DHT22;16167;48.768;14.984;2024-01-07T08:29:54;-0.60;68.30
29093;DHT22;16167;48.768;14.984;2024-01-07T08:32:22;-0.60;64.50
29093;DHT22;16167;48.768;14.984;2024-01-07T08:34:52;-0.60;63.20
29093;DHT22;16167;48.768;14.984;2024-01-07T08:37:21;-0.60;62.70
29093;DHT22;16167;48.768;14.984;2024-01-07T08:39:50;-0.60;61.70
29093;DHT22;16167;48.768;14.984;2024-01-07T08:42:18;-0.50;59.30
29093;DHT22;16167;48.768;14.984;2024-01-07T08:44:46;-0.60;58.60
29093;DHT22;16167;48.768;14.984;2024-01-07T08:47:17;-0.60;54.70
29093;DHT22;16167;48.768;14.984;2024-01-07T08:49:46;-0.60;54.00
29093;DHT22;16167;48.768;14.984;2024-01-07T08:52:14;-0.60;52.40
29093;DHT22;16167;48.768;14.984;2024-01-07T08:54:44;-0.60;49.60
29093;DHT22;16167;48.768;14.984;2024-01-07T08:57:13;-0.60;52.50
29093;DHT22;16167;48.768;14.984;2024-01-07T08:59:41;-0.60;52.50
29093;DHT22;16167;48.768;14.984;2024-01-07T09:08:24;-0.60;50.90
29093;DHT22;16167;48.768;14.984;2024-01-07T09:10:55;-0.60;53.60
29093;DHT22;16167;48.768;14.984;2024-01-07T09:13:24;-0.60;54.60
29093;DHT22;16167;48.768;14.984;2024-01-07T09:15:52;-0.70;56.50
29093;DHT22;16167;48.768;14.984;2024-01-07T09:18:20;-0.70;53.00
29093;DHT22;16167;48.768;14.984;2024-01-07T09:20:49;-0.70;51.90
29093;DHT22;16167;48.768;14.984;2024-01-07T09:23:18;-0.70;51.80
29093;DHT22;16167;48.768;14.984;2024-01-07T09:25:47;-0.70;53.30
29093;DHT22;16167;48.768;14.984;2024-01-07T09:28:17;-0.70;52.50
29093;DHT22;16167;48.768;14.984;2024-01-07T09:30:46;-0.60;55.90
29093;DHT22;16167;48.768;14.984;2024-01-07T09:33:15;-0.60;54.80
29093;DHT22;16167;48.768;14.984;2024-01-07T09:35:44;-0.60;43.70
29093;DHT22;16167;48.768;14.984;2024-01-07T09:38:13;-0.60;45.20
29093;DHT22;16167;48.768;14.984;2024-01-07T09:40:43;-0.50;45.30
29093;DHT22;16167;48.768;14.984;2024-01-07T09:43:11;-0.50;49.60
29093;DHT22;16167;48.768;14.984;2024-01-07T09:45:46;-0.50;45.10
29093;DHT22;16167;48.768;14.984;2024-01-07T09:48:15;-0.50;50.70
29093;DHT22;16167;48.768;14.984;2024-01-07T09:50:44;-0.50;52.20
29093;DHT22;16167;48.768;14.984;2024-01-07T09:53:15;-0.50;52.70
29093;DHT22;16167;48.768;14.984;2024-01-07T09:55:51;-0.50;52.10
29093;DHT22;16167;48.768;14.984;2024-01-07T09:58:25;-0.50;53.40
29093;DHT22;16167;48.768;14.984;2024-01-07T10:00:56;-0.50;53.70
29093;DHT22;16167;48.768;14.984;2024-01-07T10:03:24;-0.50;50.80
29093;DHT22;16167;48.768;14.984;2024-01-07T10:05:54;-0.50;45.10
29093;DHT22;16167;48.768;14.984;2024-01-07T10:08:22;-0.50;50.10
29093;DHT22;16167;48.768;14.984;2024-01-07T10:10:54;-0.50;51.50
29093;DHT22;16167;48.768;14.984;2024-01-07T10:13:23;-0.60;51.60
29093;DHT22;16167;48.768;14.984;2024-01-07T10:15:52;-0.60;47.60
29093;DHT22;16167;48.768;14.984;2024-01-07T10:18:23;-0.50;43.60
29093;DHT22;16167;48.768;14.984;2024-01-07T10:20:54;-0.60;35.30
29093;DHT22;16167;48.768;14.984;2024-01-07T10:23:22;-0.60;32.90
29093;DHT22;16167;48.768;14.984;2024-01-07T10:25:51;-0.50;37.20
29093;DHT22;16167;48.768;14.984;2024-01-07T10:28:20;-0.50;29.30
29093;DHT22;16167;48.768;14.984;2024-01-07T10:30:51;-0.50;35.20
29093;DHT22;16167;48.768;14.984;2024-01-07T10:33:20;-0.40;34.60
29093;DHT22;16167;48.768;14.984;2024-01-07T10:35:57;-0.40;40.00
29093;DHT22;16167;48.768;14.984;2024-01-07T10:38:28;-0.30;42.40
29093;DHT22;16167;48.768;14.984;2024-01-07T10:40:59;-0.30;33.90
29093;DHT22;16167;48.768;14.984;2024-01-07T10:43:30;-0.20;47.30
29093;DHT22;16167;48.768;14.984;2024-01-07T10:46:00;-0.10;37.40
29093;DHT22;16167;48.768;14.984;2024-01-07T10:48:31;0.00;28.50
29093;DHT22;16167;48.768;14.984;2024-01-07T10:51:04;0.10;19.80
29093;DHT22;16167;48.768;14.984;2024-01-07T10:53:34;0.10;24.30
29093;DHT22;16167;48.768;14.984;2024-01-07T10:56:04;0.20;22.90
29093;DHT22;16167;48.768;14.984;2024-01-07T10:58:43;0.20;19.80
29093;DHT22;16167;48.768;14.984;2024-01-07T11:01:55;0.20;23.60
29093;DHT22;16167;48.768;14.984;2024-01-07T11:04:32;0.10;22.40
29093;DHT22;16167;48.768;14.984;2024-01-07T11:07:19;0.10;20.60
29093;DHT22;16167;48.768;14.984;2024-01-07T11:10:01;0.10;24.00
29093;DHT22;16167;48.768;14.984;2024-01-07T11:12:32;0.00;26.80
29093;DHT22;16167;48.768;14.984;2024-01-07T11:15:02;0.00;21.20
29093;DHT22;16167;48.768;14.984;2024-01-07T11:17:45;0.10;20.90
29093;DHT22;16167;48.768;14.984;2024-01-07T11:20:20;0.10;20.70
29093;DHT22;16167;48.768;14.984;2024-01-07T11:22:51;0.00;17.00
29093;DHT22;16167;48.768;14.984;2024-01-07T11:25:29;0.00;16.20
29093;DHT22;16167;48.768;14.984;2024-01-07T11:28:00;0.00;15.60
29093;DHT22;16167;48.768;14.984;2024-01-07T11:30:31;-0.10;17.80
29093;DHT22;16167;48.768;14.984;2024-01-07T11:33:32;-0.10;17.60
29093;DHT22;16167;48.768;14.984;2024-01-07T11:36:03;-0.10;19.00
29093;DHT22;16167;48.768;14.984;2024-01-07T11:38:37;-0.10;13.90
29093;DHT22;16167;48.768;14.984;2024-01-07T11:41:21;-0.10;17.10
29093;DHT22;16167;48.768;14.984;2024-01-07T11:43:56;-0.10;17.90
29093;DHT22;16167;48.768;14.984;2024-01-07T11:46:33;-0.10;15.60
29093;DHT22;16167;48.768;14.984;2024-01-07T11:49:09;-0.20;16.80
29093;DHT22;16167;48.768;14.984;2024-01-07T11:51:45;-0.20;17.40
29093;DHT22;16167;48.768;14.984;2024-01-07T11:54:16;-0.20;12.40
29093;DHT22;16167;48.768;14.984;2024-01-07T11:56:46;-0.30;16.10
29093;DHT22;16167;48.768;14.984;2024-01-07T11:59:18;-0.30;17.60
29093;DHT22;16167;48.768;14.984;2024-01-07T12:01:47;-0.30;18.50
29093;DHT22;16167;48.768;14.984;2024-01-07T12:04:16;-0.40;14.00
29093;DHT22;16167;48.768;14.984;2024-01-07T12:06:45;-0.40;17.70
29093;DHT22;16167;48.768;14.984;2024-01-07T12:09:17;-0.40;19.20
29093;DHT22;16167;48.768;14.984;2024-01-07T12:11:46;-0.40;14.10
29093;DHT22;16167;48.768;14.984;2024-01-07T12:14:15;-0.40;15.40
29093;DHT22;16167;48.768;14.984;2024-01-07T12:16:44;-0.50;15.30
29093;DHT22;16167;48.768;14.984;2024-01-07T12:19:14;-0.50;12.40
29093;DHT22;16167;48.768;14.984;2024-01-07T12:22:02;-0.50;15.70
29093;DHT22;16167;48.768;14.984;2024-01-07T12:24:33;-0.50;18.70
29093;DHT22;16167;48.768;14.984;2024-01-07T12:27:05;-0.50;18.20
29093;DHT22;16167;48.768;14.984;2024-01-07T12:29:34;-0.60;18.30
29093;DHT22;16167;48.768;14.984;2024-01-07T12:32:03;-0.60;23.20
29093;DHT22;16167;48.768;14.984;2024-01-07T12:34:32;-0.60;24.50
29093;DHT22;16167;48.768;14.984;2024-01-07T12:37:01;-0.70;24.00
29093;DHT22;16167;48.768;14.984;2024-01-07T12:39:32;-0.80;26.10
29093;DHT22;16167;48.768;14.984;2024-01-07T12:42:13;-0.80;26.30
29093;DHT22;16167;48.768;14.984;2024-01-07T12:44:42;-0.90;31.30
29093;DHT22;16167;48.768;14.984;2024-01-07T12:47:12;-0.90;31.80
29093;DHT22;16167;48.768;14.984;2024-01-07T12:49:41;-0.90;36.10
29093;DHT22;16167;48.768;14.984;2024-01-07T12:52:10;-0.90;33.70
29093;DHT22;16167;48.768;14.984;2024-01-07T12:54:40;-1.00;29.40
29093;DHT22;16167;48.768;14.984;2024-01-07T12:57:08;-1.10;36.60
29093;DHT22;16167;48.768;14.984;2024-01-07T12:59:37;-1.20;38.20
29093;DHT22;16167;48.768;14.984;2024-01-07T13:02:05;-1.20;44.00
29093;DHT22;16167;48.768;14.984;2024-01-07T13:04:36;-1.20;43.20
29093;DHT22;16167;48.768;14.984;2024-01-07T13:07:05;-1.20;42.30
29093;DHT22;16167;48.768;14.984;2024-01-07T13:09:34;-1.20;38.20
29093;DHT22;16167;48.768;14.984;2024-01-07T13:12:05;-1.20;38.00
29093;DHT22;16167;48.768;14.984;2024-01-07T13:14:33;-1.20;36.80
29093;DHT22;16167;48.768;14.984;2024-01-07T13:17:02;-1.20;38.70
29093;DHT22;16167;48.768;14.984;2024-01-07T13:19:31;-1.20;41.10
29093;DHT22;16167;48.768;14.984;2024-01-07T13:22:00;-1.20;45.10
29093;DHT22;16167;48.768;14.984;2024-01-07T13:24:28;-1.30;41.70
29093;DHT22;16167;48.768;14.984;2024-01-07T13:26:57;-1.20;40.60
29093;DHT22;16167;48.768;14.984;2024-01-07T13:29:28;-1.30;48.10
29093;DHT22;16167;48.768;14.984;2024-01-07T13:31:57;-1.30;42.30
29093;DHT22;16167;48.768;14.984;2024-01-07T13:34:26;-1.30;43.50
29093;DHT22;16167;48.768;14.984;2024-01-07T13:36:54;-1.30;45.70
29093;DHT22;16167;48.768;14.984;2024-01-07T13:39:24;-1.40;48.00
29093;DHT22;16167;48.768;14.984;2024-01-07T13:41:53;-1.40;46.60
29093;DHT22;16167;48.768;14.984;2024-01-07T13:44:21;-1.40;51.20
29093;DHT22;16167;48.768;14.984;2024-01-07T13:46:52;-1.40;50.40
29093;DHT22;16167;48.768;14.984;2024-01-07T13:49:20;-1.40;52.50
29093;DHT22;16167;48.768;14.984;2024-01-07T13:51:49;-1.40;45.80
29093;DHT22;16167;48.768;14.984;2024-01-07T13:54:17;-1.50;49.90
29093;DHT22;16167;48.768;14.984;2024-01-07T13:56:49;-1.50;52.70
29093;DHT22;16167;48.768;14.984;2024-01-07T13:59:18;-1.60;50.60
29093;DHT22;16167;48.768;14.984;2024-01-07T14:01:46;-1.60;52.90
29093;DHT22;16167;48.768;14.984;2024-01-07T14:04:16;-1.60;57.80
29093;DHT22;16167;48.768;14.984;2024-01-07T14:06:45;-1.60;57.10
29093;DHT22;16167;48.768;14.984;2024-01-07T14:09:13;-1.60;53.40
29093;DHT22;16167;48.768;14.984;2024-01-07T14:11:42;-1.60;55.50
29093;DHT22;16167;48.768;14.984;2024-01-07T14:14:11;-1.60;57.60
29093;DHT22;16167;48.768;14.984;2024-01-07T14:16:39;-1.60;56.50
29093;DHT22;16167;48.768;14.984;2024-01-07T14:19:09;-1.60;56.30
29093;DHT22;16167;48.768;14.984;2024-01-07T14:21:39;-1.70;50.80
29093;DHT22;16167;48.768;14.984;2024-01-07T14:24:07;-1.60;50.10
29093;DHT22;16167;48.768;14.984;2024-01-07T14:26:36;-1.70;51.70
29093;DHT22;16167;48.768;14.984;2024-01-07T14:29:05;-1.70;55.50
29093;DHT22;16167;48.768;14.984;2024-01-07T14:31:44;-1.70;54.70
29093;DHT22;16167;48.768;14.984;2024-01-07T14:34:13;-1.70;57.60
29093;DHT22;16167;48.768;14.984;2024-01-07T14:36:44;-1.80;56.50
29093;DHT22;16167;48.768;14.984;2024-01-07T14:39:12;-1.80;58.20
29093;DHT22;16167;48.768;14.984;2024-01-07T14:41:42;-1.70;57.70
29093;DHT22;16167;48.768;14.984;2024-01-07T14:44:10;-1.70;58.80
29093;DHT22;16167;48.768;14.984;2024-01-07T14:46:42;-1.80;59.00
29093;DHT22;16167;48.768;14.984;2024-01-07T14:49:10;-1.80;58.70
29093;DHT22;16167;48.768;14.984;2024-01-07T14:51:39;-1.90;61.20
29093;DHT22;16167;48.768;14.984;2024-01-07T14:54:09;-1.80;64.00
29093;DHT22;16167;48.768;14.984;2024-01-07T14:56:37;-1.90;61.60
29093;DHT22;16167;48.768;14.984;2024-01-07T14:59:05;-1.80;66.30
29093;DHT22;16167;48.768;14.984;2024-01-07T15:01:34;-1.80;68.30
29093;DHT22;16167;48.768;14.984;2024-01-07T15:04:02;-1.80;62.50
29093;DHT22;16167;48.768;14.984;2024-01-07T15:06:39;-1.90;60.30
29093;DHT22;16167;48.768;14.984;2024-01-07T15:09:09;-1.80;53.50
29093;DHT22;16167;48.768;14.984;2024-01-07T15:11:40;-1.90;52.30
29093;DHT22;16167;48.768;14.984;2024-01-07T15:14:11;-1.90;52.60
29093;DHT22;16167;48.768;14.984;2024-01-07T15:16:39;-1.90;53.80
29093;DHT22;16167;48.768;14.984;2024-01-07T15:19:08;-1.90;52.90
29093;DHT22;16167;48.768;14.984;2024-01-07T15:21:38;-1.90;55.60
29093;DHT22;16167;48.768;14.984;2024-01-07T15:24:06;-2.00;58.50
29093;DHT22;16167;48.768;14.984;2024-01-07T15:26:36;-2.00;57.30
29093;DHT22;16167;48.768;14.984;2024-01-07T15:29:06;-2.00;57.80
29093;DHT22;16167;48.768;14.984;2024-01-07T15:31:34;-2.00;54.90
29093;DHT22;16167;48.768;14.984;2024-01-07T15:34:03;-2.00;54.10
29093;DHT22;16167;48.768;14.984;2024-01-07T15:36:32;-2.00;46.00
29093;DHT22;16167;48.768;14.984;2024-01-07T15:39:01;-2.00;46.50
29093;DHT22;16167;48.768;14.984;2024-01-07T15:41:30;-2.00;50.80
29093;DHT22;16167;48.768;14.984;2024-01-07T15:44:00;-2.10;53.30
29093;DHT22;16167;48.768;14.984;2024-01-07T15:46:28;-2.10;56.40
29093;DHT22;16167;48.768;14.984;2024-01-07T15:48:57;-2.10;58.40
29093;DHT22;16167;48.768;14.984;2024-01-07T15:51:26;-2.10;60.90
29093;DHT22;16167;48.768;14.984;2024-01-07T15:53:54;-2.10;62.40
29093;DHT22;16167;48.768;14.984;2024-01-07T15:56:22;-2.10;63.70